Time;durP1;ratioP1;P1;durP2;ratioP2;P2;SDS_P1;SDS_P2;PMS_P1;PMS_P2;Temp;Humidity;BMP_temperature;BMP_pressure;BME280_temperature;BME280_humidity;BME280_pressure;Samples;Min_cycle;Max_cycle;Signal;HPM_P1;HPM_P2
2021/09/18 00:02:21;;;;;;;4.45;2.53;;;22.80;58.50;;;;;;6253324;28;20033;-78
2021/09/18 00:05:22;;;;;;;6.47;2.53;;;22.80;58.50;;;;;;6234397;28;20059;-78
2021/09/18 00:08:23;;;;;;;3.42;2.40;;;22.80;59.00;;;;;;6249667;28;20045;-78
2021/09/18 00:11:24;;;;;;;9.35;2.75;;;22.80;58.30;;;;;;6255250;28;20079;-77
2021/09/18 00:14:25;;;;;;;4.28;2.33;;;22.80;58.30;;;;;;6254617;28;20047;-77
2021/09/18 00:17:26;;;;;;;3.67;2.42;;;22.80;58.20;;;;;;6254835;28;20438;-78
2021/09/18 00:20:27;;;;;;;3.53;2.28;;;22.80;58.10;;;;;;6250165;28;20037;-78
2021/09/18 00:23:29;;;;;;;5.32;3.03;;;22.80;58.10;;;;;;6249574;28;20026;-78
2021/09/18 00:26:34;;;;;;;3.88;2.53;;;22.80;58.10;;;;;;6270552;28;20063;-78
2021/09/18 00:29:34;;;;;;;7.18;3.28;;;22.80;58.10;;;;;;6273163;28;20064;-78
2021/09/18 00:32:35;;;;;;;4.57;2.72;;;22.80;58.20;;;;;;6226546;28;20103;-77
2021/09/18 00:35:36;;;;;;;6.70;2.63;;;22.70;58.20;;;;;;6232638;28;20041;-78
2021/09/18 00:38:37;;;;;;;5.47;2.97;;;22.70;58.20;;;;;;6248255;28;20477;-77
2021/09/18 00:41:38;;;;;;;4.50;2.95;;;22.80;58.30;;;;;;6248633;28;20037;-78
2021/09/18 00:44:39;;;;;;;6.90;2.88;;;22.80;58.30;;;;;;6247881;28;20106;-78
2021/09/18 00:47:40;;;;;;;4.22;2.55;;;22.80;58.30;;;;;;6269541;28;20107;-77
2021/09/18 00:50:42;;;;;;;6.28;2.80;;;22.80;58.30;;;;;;6264432;28;20446;-77
2021/09/18 00:53:43;;;;;;;5.38;2.60;;;22.80;58.40;;;;;;6257288;28;20057;-78
2021/09/18 00:56:44;;;;;;;4.93;2.70;;;22.70;58.70;;;;;;6252112;28;20029;-77
2021/09/18 00:59:46;;;;;;;10.52;3.20;;;22.70;58.80;;;;;;6248664;28;20420;-77
2021/09/18 01:02:47;;;;;;;3.97;2.53;;;22.70;59.00;;;;;;6266509;28;20125;-77
2021/09/18 01:05:48;;;;;;;8.05;2.63;;;22.70;59.20;;;;;;6249592;28;20026;-77
2021/09/18 01:08:53;;;;;;;21.02;3.10;;;22.70;59.40;;;;;;6253876;28;20040;-77
2021/09/18 01:11:54;;;;;;;4.90;2.88;;;22.60;59.40;;;;;;6248615;28;20037;-77
2021/09/18 01:14:55;;;;;;;4.30;2.75;;;22.60;59.50;;;;;;6248161;28;20443;-77
2021/09/18 01:17:56;;;;;;;4.28;2.33;;;22.50;59.50;;;;;;6266565;28;20098;-77
2021/09/18 01:20:56;;;;;;;6.97;2.90;;;22.50;59.60;;;;;;6273271;28;20412;-77
2021/09/18 01:23:57;;;;;;;4.80;3.00;;;22.50;59.70;;;;;;6273192;28;20079;-77
2021/09/18 01:26:58;;;;;;;4.25;2.85;;;22.40;59.80;;;;;;6272043;28;20112;-77
2021/09/18 01:29:59;;;;;;;3.17;2.38;;;22.40;59.80;;;;;;6253318;28;20045;-77
2021/09/18 01:33:02;;;;;;;6.72;3.15;;;22.40;60.00;;;;;;6253887;28;20167;-77
2021/09/18 01:36:03;;;;;;;4.22;2.80;;;22.40;60.10;;;;;;6232881;28;20446;-77
2021/09/18 01:39:09;;;;;;;5.82;2.70;;;22.40;60.10;;;;;;6252261;28;20072;-77
2021/09/18 01:42:10;;;;;;;6.07;2.88;;;22.40;60.20;;;;;;6243024;28;20037;-77
2021/09/18 01:45:11;;;;;;;5.10;2.72;;;22.40;60.20;;;;;;6262884;28;20044;-77
2021/09/18 01:48:14;;;;;;;5.68;2.35;;;22.40;60.30;;;;;;6277533;28;20033;-77
2021/09/18 01:51:15;;;;;;;3.88;2.45;;;22.40;60.40;;;;;;6277633;28;20090;-77
2021/09/18 01:54:16;;;;;;;4.45;2.55;;;22.40;60.50;;;;;;6276572;28;20163;-77
2021/09/18 01:57:17;;;;;;;13.25;2.85;;;22.40;60.60;;;;;;6276752;28;20033;-77
2021/09/18 02:00:18;;;;;;;5.60;2.80;;;22.40;60.80;;;;;;6246992;28;20117;-77
2021/09/18 02:03:21;;;;;;;3.97;2.47;;;22.30;60.70;;;;;;6265859;28;20033;-77
2021/09/18 02:06:23;;;;;;;5.40;2.83;;;22.30;60.80;;;;;;6233534;28;20041;-77
2021/09/18 02:09:24;;;;;;;7.45;3.05;;;22.30;60.90;;;;;;6275595;28;20473;-77
2021/09/18 02:12:25;;;;;;;3.95;2.67;;;22.30;61.10;;;;;;6275850;28;20048;-77
2021/09/18 02:15:26;;;;;;;5.82;2.80;;;22.30;61.10;;;;;;6276161;28;20091;-77
2021/09/18 02:18:27;;;;;;;7.10;2.83;;;22.20;61.20;;;;;;6275137;28;20397;-77
2021/09/18 02:21:28;;;;;;;5.05;2.85;;;22.20;61.20;;;;;;6259791;28;20111;-77
2021/09/18 02:24:29;;;;;;;7.10;2.58;;;22.20;61.30;;;;;;6277155;28;20033;-78
2021/09/18 02:27:30;;;;;;;4.63;2.70;;;22.20;61.30;;;;;;6276117;28;20044;-78
2021/09/18 02:30:34;;;;;;;3.72;2.30;;;22.30;61.20;;;;;;6255806;28;20355;-77
2021/09/18 02:33:35;;;;;;;5.50;2.97;;;22.30;61.20;;;;;;6258782;28;20056;-77
2021/09/18 02:36:36;;;;;;;7.35;2.85;;;22.30;62.00;;;;;;6275900;28;20120;-77
2021/09/18 02:39:37;;;;;;;8.95;2.80;;;22.40;61.20;;;;;;6276344;28;20033;-76
2021/09/18 02:42:41;;;;;;;5.57;2.58;;;22.30;61.10;;;;;;6258445;28;20099;-77
2021/09/18 02:45:42;;;;;;;6.60;2.85;;;22.30;61.20;;;;;;6259272;28;20040;-77
2021/09/18 02:48:42;;;;;;;4.43;2.63;;;22.40;61.20;;;;;;6234608;28;20022;-77
2021/09/18 02:51:43;;;;;;;7.93;2.95;;;22.30;61.20;;;;;;6227157;28;20099;-77
2021/09/18 02:54:44;;;;;;;14.07;3.15;;;22.20;61.20;;;;;;6233219;28;20113;-77
2021/09/18 02:57:45;;;;;;;6.47;2.58;;;22.20;61.30;;;;;;6236003;28;20044;-76
2021/09/18 03:00:46;;;;;;;7.30;2.53;;;22.20;61.40;;;;;;6249514;28;20414;-76
2021/09/18 03:03:47;;;;;;;6.13;2.50;;;22.20;61.50;;;;;;6240270;28;20490;-76
2021/09/18 03:06:48;;;;;;;3.55;2.35;;;22.10;61.60;;;;;;6274765;28;20032;-76
2021/09/18 03:09:49;;;;;;;3.80;2.67;;;22.20;61.70;;;;;;6258020;28;20036;-76
2021/09/18 03:12:50;;;;;;;8.18;2.25;;;22.30;61.80;;;;;;6249735;28;20340;-76
2021/09/18 03:15:51;;;;;;;6.22;2.85;;;22.20;62.50;;;;;;6234117;28;20077;-77
2021/09/18 03:18:52;;;;;;;3.67;2.58;;;22.10;61.50;;;;;;6258258;28;20045;-76
2021/09/18 03:21:53;;;;;;;3.55;2.50;;;22.20;61.40;;;;;;6250827;28;20033;-76
2021/09/18 03:24:54;;;;;;;12.10;2.90;;;22.20;61.30;;;;;;6233608;28;20041;-77
2021/09/18 03:27:55;;;;;;;3.60;2.30;;;22.20;61.20;;;;;;6250487;28;20071;-77
2021/09/18 03:30:56;;;;;;;4.25;2.50;;;22.20;61.00;;;;;;6250590;28;20108;-77
2021/09/18 03:33:57;;;;;;;3.33;2.63;;;22.20;61.00;;;;;;6251912;28;20139;-77
2021/09/18 03:36:57;;;;;;;4.07;2.72;;;22.20;61.10;;;;;;6251651;28;20036;-77
2021/09/18 03:39:58;;;;;;;3.38;2.70;;;22.20;61.20;;;;;;6250024;28;20052;-77
2021/09/18 03:42:59;;;;;;;4.13;2.67;;;22.20;61.30;;;;;;6248586;28;20120;-77
2021/09/18 03:46:00;;;;;;;6.03;3.13;;;22.20;62.30;;;;;;6251546;28;20041;-77
2021/09/18 03:49:01;;;;;;;4.25;2.88;;;22.10;61.50;;;;;;6271410;28;20029;-77
2021/09/18 03:52:02;;;;;;;6.93;3.08;;;22.20;61.60;;;;;;6273455;28;20048;-79
2021/09/18 03:55:05;;;;;;;4.57;3.00;;;22.20;61.60;;;;;;6262051;28;20473;-76
2021/09/18 03:58:06;;;;;;;5.53;3.25;;;22.20;61.70;;;;;;6250807;28;20042;-78
2021/09/18 04:01:07;;;;;;;11.07;3.15;;;22.10;61.70;;;;;;6249550;28;20061;-78
2021/09/18 04:04:08;;;;;;;7.03;3.10;;;22.10;61.70;;;;;;6255109;28;20033;-77
2021/09/18 04:07:09;;;;;;;6.30;2.45;;;22.10;61.70;;;;;;6224321;28;20444;-77
2021/09/18 04:10:10;;;;;;;3.53;2.70;;;22.10;61.60;;;;;;6225210;28;20424;-77
2021/09/18 04:13:11;;;;;;;7.78;2.72;;;22.10;61.60;;;;;;6234242;28;20041;-77
2021/09/18 04:16:12;;;;;;;4.80;2.80;;;22.00;61.70;;;;;;6247656;28;20103;-77
2021/09/18 04:19:13;;;;;;;4.05;2.65;;;22.00;61.80;;;;;;6270143;28;20037;-77
2021/09/18 04:22:14;;;;;;;8.80;3.00;;;21.90;62.00;;;;;;6273285;28;20051;-77
2021/09/18 04:25:15;;;;;;;8.02;2.47;;;22.00;62.50;;;;;;6239568;28;20033;-77
2021/09/18 04:28:16;;;;;;;4.88;3.03;;;21.90;62.50;;;;;;6246307;28;20050;-77
2021/09/18 04:31:17;;;;;;;6.38;3.10;;;21.80;62.80;;;;;;6248556;28;20519;-77
2021/09/18 04:34:18;;;;;;;5.43;2.90;;;21.80;62.90;;;;;;6243214;28;20029;-77
2021/09/18 04:37:19;;;;;;;5.57;2.92;;;21.80;62.90;;;;;;6261841;28;20037;-77
2021/09/18 04:40:20;;;;;;;8.65;2.72;;;21.80;62.90;;;;;;6287582;28;20071;-77
2021/09/18 04:43:21;;;;;;;3.97;2.40;;;21.80;62.90;;;;;;6261768;28;20033;-77
2021/09/18 04:46:25;;;;;;;14.27;3.22;;;21.80;62.90;;;;;;6276013;28;20383;-77
2021/09/18 04:49:27;;;;;;;5.43;2.58;;;21.80;63.00;;;;;;6277750;28;20052;-77
2021/09/18 04:52:28;;;;;;;6.68;2.58;;;21.80;63.00;;;;;;6269070;28;20045;-77
2021/09/18 04:55:29;;;;;;;5.68;2.95;;;21.80;63.20;;;;;;6260833;28;20028;-77
2021/09/18 04:58:32;;;;;;;5.57;3.00;;;21.70;63.40;;;;;;6272759;28;20094;-76
2021/09/18 05:01:33;;;;;;;7.22;3.28;;;21.70;63.50;;;;;;6271783;28;20098;-77
2021/09/18 05:04:34;;;;;;;7.20;3.13;;;21.70;63.50;;;;;;6266149;28;20366;-77
2021/09/18 05:07:35;;;;;;;4.75;2.97;;;21.70;63.70;;;;;;6273276;28;20025;-77
2021/09/18 05:10:36;;;;;;;9.43;2.60;;;21.70;63.80;;;;;;6273420;28;20391;-77
2021/09/18 05:13:37;;;;;;;4.15;2.85;;;21.60;63.80;;;;;;6262054;28;20461;-77
2021/09/18 05:16:38;;;;;;;5.35;3.40;;;21.60;63.90;;;;;;6248664;28;20053;-77
2021/09/18 05:19:40;;;;;;;8.65;3.25;;;21.60;64.00;;;;;;6255597;28;20063;-77
2021/09/18 05:22:40;;;;;;;9.90;2.92;;;21.60;64.20;;;;;;6255888;28;20040;-77
2021/09/18 05:25:41;;;;;;;5.63;3.00;;;21.60;65.20;;;;;;6271957;28;20029;-78
2021/09/18 05:28:42;;;;;;;5.18;3.25;;;21.50;64.40;;;;;;6271506;28;20358;-78
2021/09/18 05:31:43;;;;;;;9.32;3.40;;;21.50;64.40;;;;;;6254194;28;20443;-77
2021/09/18 05:34:45;;;;;;;9.30;3.00;;;21.60;64.40;;;;;;6249000;28;20438;-78
2021/09/18 05:37:46;;;;;;;7.82;2.90;;;21.60;64.40;;;;;;6248248;28;20021;-78
2021/09/18 05:40:47;;;;;;;5.57;2.90;;;21.50;64.30;;;;;;6247896;28;20032;-78
2021/09/18 05:43:48;;;;;;;4.65;3.50;;;21.60;64.30;;;;;;6220894;28;20026;-77
2021/09/18 05:46:49;;;;;;;11.35;2.95;;;21.60;64.30;;;;;;6229626;28;20033;-76
2021/09/18 05:49:50;;;;;;;5.07;3.13;;;21.60;64.30;;;;;;6224766;28;20053;-76
2021/09/18 05:52:50;;;;;;;5.70;2.90;;;21.60;64.20;;;;;;6248775;28;20110;-77
2021/09/18 05:55:51;;;;;;;6.65;3.15;;;21.60;64.20;;;;;;6247735;28;20063;-78
2021/09/18 05:58:53;;;;;;;5.47;3.45;;;21.70;64.30;;;;;;6241712;28;20033;-77
2021/09/18 06:01:55;;;;;;;5.55;3.33;;;21.70;64.20;;;;;;6249910;28;20041;-77
2021/09/18 06:04:56;;;;;;;7.40;3.50;;;21.70;64.20;;;;;;6246645;28;20071;-77
2021/09/18 06:07:57;;;;;;;4.68;3.03;;;21.70;64.20;;;;;;6271626;28;20041;-78
2021/09/18 06:10:58;;;;;;;7.97;3.65;;;21.70;64.20;;;;;;6267577;28;20037;-78
2021/09/18 06:13:59;;;;;;;6.93;3.42;;;21.70;64.10;;;;;;6249997;28;20079;-78
2021/09/18 06:17:00;;;;;;;5.18;3.60;;;21.80;64.20;;;;;;6237801;28;20103;-78
2021/09/18 06:20:01;;;;;;;11.63;3.33;;;21.80;64.10;;;;;;6259070;28;20470;-77
2021/09/18 06:23:02;;;;;;;6.85;3.50;;;21.80;64.00;;;;;;6275155;28;20121;-77
2021/09/18 06:26:08;;;;;;;7.53;3.63;;;21.80;63.90;;;;;;6277040;28;20128;-77
2021/09/18 06:29:09;;;;;;;6.90;3.72;;;21.80;63.90;;;;;;6245076;28;20041;-78
2021/09/18 06:32:10;;;;;;;9.35;3.90;;;21.90;63.90;;;;;;6254775;28;20124;-77
2021/09/18 06:35:14;;;;;;;6.03;3.25;;;21.90;63.90;;;;;;6271744;28;20040;-78
2021/09/18 06:38:21;;;;;;;10.80;3.53;;;21.90;63.90;;;;;;6275451;28;20037;-77
2021/09/18 06:41:22;;;;;;;8.00;3.75;;;21.90;63.90;;;;;;6250968;28;20052;-78
2021/09/18 06:44:23;;;;;;;6.38;4.25;;;21.90;63.80;;;;;;6251494;28;20061;-79
2021/09/18 06:47:24;;;;;;;6.22;3.78;;;21.90;63.80;;;;;;6256808;28;20111;-77
2021/09/18 06:50:25;;;;;;;5.40;3.75;;;21.80;63.80;;;;;;6258503;28;20033;-78
2021/09/18 06:53:26;;;;;;;6.20;3.35;;;21.80;63.80;;;;;;6267754;28;20052;-79
2021/09/18 06:56:27;;;;;;;8.07;3.55;;;21.80;63.80;;;;;;6250805;28;20099;-78
2021/09/18 06:59:27;;;;;;;6.05;3.55;;;21.90;63.60;;;;;;6234679;28;20033;-77
2021/09/18 07:02:28;;;;;;;7.78;3.70;;;21.90;63.50;;;;;;6254757;28;20025;-76
2021/09/18 07:05:29;;;;;;;5.03;3.28;;;21.90;63.40;;;;;;6257611;28;20397;-77
2021/09/18 07:08:30;;;;;;;9.10;3.97;;;21.90;63.20;;;;;;6256583;28;20041;-78
2021/09/18 07:11:31;;;;;;;6.18;3.65;;;21.90;63.10;;;;;;6234152;28;20033;-78
2021/09/18 07:14:32;;;;;;;6.88;3.30;;;21.90;63.20;;;;;;6250619;28;20116;-77
2021/09/18 07:17:33;;;;;;;5.70;3.88;;;22.00;63.20;;;;;;6257267;28;20036;-78
2021/09/18 07:20:34;;;;;;;9.18;3.22;;;22.00;63.10;;;;;;6257798;28;20112;-78
2021/09/18 07:23:35;;;;;;;5.22;3.95;;;22.10;63.20;;;;;;6250540;28;20040;-77
2021/09/18 07:26:37;;;;;;;10.65;4.10;;;22.10;63.10;;;;;;6244011;28;20370;-78
2021/09/18 07:29:38;;;;;;;8.20;3.83;;;22.20;63.00;;;;;;6250131;28;20061;-77
2021/09/18 07:32:39;;;;;;;8.85;3.72;;;22.20;62.60;;;;;;6255352;28;20472;-77
2021/09/18 07:35:40;;;;;;;7.00;4.05;;;22.30;62.50;;;;;;6250119;28;20048;-78
2021/09/18 07:38:41;;;;;;;7.47;3.90;;;22.40;62.40;;;;;;6267154;28;20064;-79
2021/09/18 07:41:42;;;;;;;7.50;3.70;;;22.50;62.20;;;;;;6259298;28;20041;-79
2021/09/18 07:44:43;;;;;;;10.80;4.15;;;22.60;61.80;;;;;;6233243;28;20148;-78
2021/09/18 07:47:44;;;;;;;11.70;3.97;;;22.70;61.80;;;;;;6257602;28;20037;-78
2021/09/18 07:50:45;;;;;;;7.30;3.83;;;22.80;61.40;;;;;;6273211;28;20040;-78
2021/09/18 07:53:46;;;;;;;8.27;3.60;;;22.90;61.00;;;;;;6270967;28;20123;-78
2021/09/18 07:56:47;;;;;;;6.20;3.67;;;23.00;60.70;;;;;;6273009;28;20043;-77
2021/09/18 07:59:48;;;;;;;6.88;4.00;;;23.10;60.00;;;;;;6256105;28;20033;-79
2021/09/18 08:02:52;;;;;;;7.78;4.03;;;23.20;59.80;;;;;;6265226;28;20037;-78
2021/09/18 08:05:53;;;;;;;5.68;3.88;;;23.30;59.40;;;;;;6248919;28;20056;-79
2021/09/18 08:08:54;;;;;;;9.20;4.20;;;23.40;59.20;;;;;;6249774;28;20036;-77
2021/09/18 08:11:55;;;;;;;5.43;3.85;;;23.50;58.90;;;;;;6248898;28;20056;-77
2021/09/18 08:14:57;;;;;;;9.98;4.25;;;23.70;58.60;;;;;;6249157;28;20341;-77
2021/09/18 08:17:59;;;;;;;12.00;5.38;;;23.80;58.40;;;;;;6258095;28;20029;-78
2021/09/18 08:21:00;;;;;;;7.00;4.10;;;23.90;58.10;;;;;;6246984;28;20029;-77
2021/09/18 08:24:01;;;;;;;7.28;4.65;;;24.00;57.70;;;;;;6268435;28;20029;-78
2021/09/18 08:27:03;;;;;;;7.35;4.78;;;24.20;57.50;;;;;;6272239;28;20029;-78
2021/09/18 08:30:06;;;;;;;4.63;3.70;;;24.30;57.00;;;;;;6273263;28;20420;-78
2021/09/18 08:33:07;;;;;;;7.95;4.05;;;24.40;56.70;;;;;;6265457;28;20037;-78
2021/09/18 08:36:08;;;;;;;9.77;5.10;;;24.50;56.30;;;;;;6272026;28;20045;-78
2021/09/18 08:39:09;;;;;;;9.15;5.18;;;24.60;56.10;;;;;;6271316;28;20047;-78
2021/09/18 08:42:11;;;;;;;9.50;4.15;;;24.70;55.70;;;;;;6258199;28;20041;-78
2021/09/18 08:45:13;;;;;;;10.05;4.70;;;24.70;55.50;;;;;;6260190;28;20036;-78
2021/09/18 08:48:16;;;;;;;9.80;3.88;;;24.80;55.40;;;;;;6272324;28;20128;-78
2021/09/18 08:51:17;;;;;;;5.30;3.78;;;24.90;55.20;;;;;;6275384;28;20108;-78
2021/09/18 08:54:18;;;;;;;7.05;3.92;;;25.00;54.90;;;;;;6271335;28;20515;-77
2021/09/18 08:57:19;;;;;;;7.57;4.85;;;25.00;54.70;;;;;;6270904;28;20131;-77
2021/09/18 09:00:29;;;;;;;10.68;5.97;;;25.10;54.50;;;;;;6270882;28;20074;-77
2021/09/18 09:03:36;;;;;;;8.93;5.18;;;25.10;54.30;;;;;;6262620;28;20097;-77
2021/09/18 09:06:49;;;;;;;9.68;4.40;;;25.20;54.20;;;;;;6246859;28;20128;-78
2021/09/18 09:10:05;;;;;;;14.48;6.93;;;25.30;54.10;;;;;;6231980;28;20049;-78
2021/09/18 09:13:09;;;;;;;6.20;3.40;;;25.40;53.90;;;;;;6265289;28;20040;-77
2021/09/18 09:16:10;;;;;;;9.35;5.20;;;25.50;53.60;;;;;;6247417;28;20087;-78
2021/09/18 09:19:16;;;;;;;5.03;3.45;;;25.50;53.20;;;;;;6263555;28;20025;-78
2021/09/18 09:22:36;;;;;;;7.07;4.18;;;25.60;53.20;;;;;;6248844;28;20057;-79
2021/09/18 09:25:38;;;;;;;5.40;3.80;;;25.60;52.90;;;;;;6243446;28;20076;-77
2021/09/18 09:28:41;;;;;;;7.03;3.88;;;25.70;52.70;;;;;;6250041;28;20033;-78
2021/09/18 09:31:42;;;;;;;6.07;3.65;;;25.80;52.70;;;;;;6265013;28;20052;-77
2021/09/18 09:34:43;;;;;;;7.18;3.13;;;25.80;52.70;;;;;;6258794;28;20098;-78
2021/09/18 09:37:57;;;;;;;6.90;3.45;;;25.90;52.70;;;;;;6248337;28;20124;-77
2021/09/18 09:40:58;;;;;;;6.88;4.05;;;25.90;52.60;;;;;;6246021;28;20136;-78
2021/09/18 09:44:03;;;;;;;11.10;3.90;;;25.90;52.40;;;;;;6244699;28;20351;-77
2021/09/18 09:47:10;;;;;;;6.20;3.60;;;25.90;52.20;;;;;;6254928;28;20056;-78
2021/09/18 09:50:13;;;;;;;5.30;3.50;;;25.90;52.20;;;;;;6247586;28;20403;-78
2021/09/18 09:53:29;;;;;;;15.98;5.85;;;26.00;52.20;;;;;;6256312;28;20346;-78
2021/09/18 09:56:30;;;;;;;9.27;4.70;;;26.10;52.10;;;;;;6272460;28;20048;-78
2021/09/18 09:59:31;;;;;;;7.60;3.63;;;26.20;51.80;;;;;;6254937;28;20031;-78
2021/09/18 10:02:34;;;;;;;11.35;3.85;;;26.20;51.80;;;;;;6252218;28;20116;-78
2021/09/18 10:05:37;;;;;;;5.40;3.83;;;26.20;51.70;;;;;;6243416;28;20045;-78
2021/09/18 10:08:39;;;;;;;6.30;3.78;;;26.30;51.50;;;;;;6242589;28;20025;-78
2021/09/18 10:11:40;;;;;;;5.13;3.67;;;26.50;51.30;;;;;;6249711;28;20114;-78
2021/09/18 10:14:46;;;;;;;10.88;3.47;;;26.50;51.00;;;;;;6252323;28;20025;-77
2021/09/18 10:17:48;;;;;;;11.25;3.33;;;26.60;50.90;;;;;;6268255;28;20025;-78
2021/09/18 10:23:56;;;;;;;3.75;2.55;;;26.70;50.60;;;;;;6274007;28;20032;-78
2021/09/18 10:27:12;;;;;;;10.70;3.13;;;26.80;50.50;;;;;;6276836;28;20094;-77
2021/09/18 10:30:33;;;;;;;7.93;4.40;;;27.00;50.20;;;;;;6268715;28;20334;-78
2021/09/18 10:33:35;;;;;;;5.72;3.63;;;27.40;49.40;;;;;;6255484;28;20358;-78
2021/09/18 10:36:43;;;;;;;7.63;3.00;;;27.80;49.00;;;;;;6216981;28;20030;-78
2021/09/18 10:40:18;;;;;;;12.20;3.65;;;28.10;48.10;;;;;;6258518;28;20037;-78
2021/09/18 10:43:32;;;;;;;5.60;3.33;;;28.40;47.40;;;;;;6270124;28;20116;-79
2021/09/18 10:46:52;;;;;;;6.57;3.03;;;28.70;46.90;;;;;;6270451;28;20056;-79
2021/09/18 10:49:52;;;;;;;4.88;3.10;;;28.90;46.40;;;;;;6264929;28;20043;-77
2021/09/18 10:53:09;;;;;;;8.75;3.30;;;29.20;45.90;;;;;;6235453;28;20312;-77
2021/09/18 10:56:10;;;;;;;4.80;2.78;;;29.40;45.20;;;;;;6249401;28;20159;-78
2021/09/18 10:59:12;;;;;;;3.95;2.70;;;29.60;44.70;;;;;;6252395;28;20033;-78
2021/09/18 11:02:33;;;;;;;4.13;2.65;;;29.80;44.30;;;;;;6249725;28;20057;-79
2021/09/18 11:05:37;;;;;;;3.28;2.47;;;30.00;43.80;;;;;;6253315;28;20051;-78
2021/09/18 11:08:50;;;;;;;3.67;2.90;;;30.20;43.30;;;;;;6256458;28;20036;-77
2021/09/18 11:12:13;;;;;;;11.65;2.83;;;30.30;42.80;;;;;;6258907;28;20057;-79
2021/09/18 11:15:15;;;;;;;10.05;6.90;;;30.50;42.10;;;;;;6251409;28;20438;-78
2021/09/18 11:18:34;;;;;;;4.47;2.38;;;30.60;41.80;;;;;;6267278;28;20053;-78
2021/09/18 11:21:37;;;;;;;10.15;2.45;;;30.70;41.30;;;;;;6263487;28;20087;-79
2021/09/18 11:24:38;;;;;;;5.32;2.53;;;30.80;41.10;;;;;;6245755;28;20040;-79
2021/09/18 11:27:38;;;;;;;3.63;2.47;;;31.00;40.70;;;;;;6233865;28;20342;-79
2021/09/18 11:30:46;;;;;;;5.30;2.40;;;31.00;40.10;;;;;;6262592;28;20459;-79
2021/09/18 11:33:48;;;;;;;;;;;31.10;39.50;;;;;;6249354;28;20034;-79
2021/09/18 11:36:49;;;;;;;2.25;1.65;;;31.40;39.30;;;;;;6247754;28;19974;-78
2021/09/18 11:39:51;;;;;;;8.85;2.47;;;31.50;38.40;;;;;;6246836;28;20334;-78
2021/09/18 11:42:55;;;;;;;4.57;2.20;;;31.70;38.20;;;;;;6217836;28;20030;-77
2021/09/18 11:45:58;;;;;;;8.23;2.00;;;31.90;37.80;;;;;;6245605;28;20037;-78
2021/09/18 11:49:00;;;;;;;2.78;2.08;;;32.10;37.40;;;;;;6234377;28;20041;-78
2021/09/18 11:52:03;;;;;;;2.97;1.80;;;32.30;36.90;;;;;;6238564;28;20048;-77
2021/09/18 11:55:06;;;;;;;2.60;1.60;;;32.60;36.40;;;;;;6245985;28;20142;-78
2021/09/18 11:58:26;;;;;;;1.52;1.42;;;33.00;35.90;;;;;;6223153;28;20132;-78
2021/09/18 12:01:28;;;;;;;2.17;1.98;;;33.40;34.60;;;;;;6237460;28;20025;-79
2021/09/18 12:04:40;;;;;;;4.03;1.52;;;33.70;34.40;;;;;;6250490;28;20021;-77
2021/09/18 12:07:51;;;;;;;2.10;1.60;;;33.90;33.70;;;;;;6270799;28;20021;-79
2021/09/18 12:10:55;;;;;;;2.70;1.83;;;34.30;33.10;;;;;;6268912;28;20116;-77
2021/09/18 12:13:56;;;;;;;3.17;1.80;;;34.70;32.70;;;;;;6248012;28;20112;-79
2021/09/18 12:16:56;;;;;;;4.53;1.80;;;35.00;32.10;;;;;;6247904;28;20049;-79
2021/09/18 12:19:58;;;;;;;6.40;2.10;;;35.50;31.30;;;;;;6268941;28;20037;-79
2021/09/18 12:22:59;;;;;;;5.70;1.95;;;35.80;30.50;;;;;;6252230;28;20033;-79
2021/09/18 12:26:03;;;;;;;2.38;1.98;;;36.30;30.00;;;;;;6269944;28;20412;-79
2021/09/18 12:29:11;;;;;;;4.43;1.65;;;36.90;29.40;;;;;;6270446;28;20070;-79
2021/09/18 12:32:13;;;;;;;2.35;1.70;;;37.50;28.70;;;;;;6267663;28;20052;-78
2021/09/18 12:35:14;;;;;;;3.88;1.80;;;37.90;28.00;;;;;;6244881;28;20034;-78
2021/09/18 12:38:17;;;;;;;3.70;1.73;;;38.40;27.60;;;;;;6246610;28;20033;-79
2021/09/18 12:41:23;;;;;;;2.72;2.05;;;39.00;27.00;;;;;;6245478;28;20033;-78
2021/09/18 12:44:36;;;;;;;2.63;2.00;;;39.20;26.50;;;;;;6243832;28;20374;-79
2021/09/18 12:47:37;;;;;;;4.70;2.05;;;39.50;26.30;;;;;;6264974;28;20021;-79
2021/09/18 12:50:55;;;;;;;2.22;1.73;;;39.80;26.10;;;;;;6234978;28;20056;-78
2021/09/18 12:53:58;;;;;;;4.55;1.85;;;39.90;25.60;;;;;;6245199;28;20126;-78
2021/09/18 12:57:06;;;;;;;5.32;2.00;;;39.60;25.70;;;;;;6255624;28;20053;-77
2021/09/18 13:00:09;;;;;;;2.40;1.85;;;39.70;25.70;;;;;;6245601;28;20053;-79
2021/09/18 13:03:12;;;;;;;1.90;1.42;;;39.90;25.50;;;;;;6249077;28;20056;-78
2021/09/18 13:06:14;;;;;;;1.90;1.65;;;40.30;25.20;;;;;;6258782;28;20067;-78
2021/09/18 13:09:21;;;;;;;2.17;1.98;;;40.40;24.80;;;;;;6265429;28;20063;-78
2021/09/18 13:12:22;;;;;;;2.90;1.60;;;40.30;24.70;;;;;;6244052;28;20103;-78
2021/09/18 13:15:31;;;;;;;4.70;1.60;;;40.20;24.90;;;;;;6227008;28;20039;-78
2021/09/18 13:18:32;;;;;;;1.65;1.55;;;40.30;24.80;;;;;;6240908;28;20036;-79
2021/09/18 13:21:34;;;;;;;3.00;1.48;;;40.30;24.70;;;;;;6233727;28;20035;-79
2021/09/18 13:24:35;;;;;;;2.22;1.70;;;40.10;25.20;;;;;;6250274;28;20418;-79
2021/09/18 13:27:37;;;;;;;3.47;1.75;;;40.10;24.80;;;;;;6212822;28;20041;-79
2021/09/18 13:30:38;;;;;;;3.50;1.73;;;40.00;24.80;;;;;;6246927;28;20109;-77
2021/09/18 13:33:40;;;;;;;2.55;1.80;;;39.10;25.40;;;;;;6237078;28;20033;-78
2021/09/18 13:36:41;;;;;;;1.80;1.70;;;38.00;26.40;;;;;;6246795;28;20545;-78
2021/09/18 13:39:43;;;;;;;2.38;1.90;;;36.90;27.20;;;;;;6244659;28;20311;-78
2021/09/18 13:42:44;;;;;;;2.42;1.73;;;36.00;28.00;;;;;;6247664;28;20091;-79
2021/09/18 13:45:47;;;;;;;1.98;1.70;;;35.30;28.70;;;;;;6248131;28;20132;-78
2021/09/18 13:48:48;;;;;;;4.32;1.98;;;34.70;29.30;;;;;;6244122;28;20469;-78
2021/09/18 13:51:49;;;;;;;2.70;1.60;;;34.10;29.80;;;;;;6246896;28;20048;-78
2021/09/18 13:54:50;;;;;;;2.20;1.73;;;33.60;30.30;;;;;;6246708;28;20040;-77
2021/09/18 13:57:51;;;;;;;2.08;1.75;;;33.20;31.00;;;;;;6246612;28;20447;-78
2021/09/18 14:00:54;;;;;;;3.35;1.80;;;32.70;31.60;;;;;;6247561;28;20358;-79
2021/09/18 14:03:57;;;;;;;3.03;1.98;;;32.30;32.30;;;;;;6242501;28;20037;-77
2021/09/18 14:06:58;;;;;;;4.05;1.92;;;32.00;32.80;;;;;;6242140;28;20030;-78
2021/09/18 14:09:59;;;;;;;2.60;2.00;;;31.80;33.20;;;;;;6272211;28;20047;-79
2021/09/18 14:13:00;;;;;;;4.75;1.70;;;31.70;33.50;;;;;;6272329;28;20124;-78
2021/09/18 14:16:01;;;;;;;2.58;1.77;;;31.50;33.90;;;;;;6252388;28;20321;-79
2021/09/18 14:19:03;;;;;;;2.97;1.70;;;31.20;34.30;;;;;;6248851;28;20358;-79
2021/09/18 14:22:04;;;;;;;3.10;1.83;;;31.10;34.70;;;;;;6248791;28;20038;-78
2021/09/18 14:25:06;;;;;;;4.45;1.95;;;31.00;35.00;;;;;;6237118;28;20041;-78
2021/09/18 14:28:08;;;;;;;3.50;1.70;;;30.90;35.30;;;;;;6234036;28;20087;-79
2021/09/18 14:31:10;;;;;;;5.25;2.20;;;30.70;35.50;;;;;;6249312;28;20097;-79
2021/09/18 14:34:11;;;;;;;2.33;1.67;;;30.60;35.70;;;;;;6235467;28;20461;-79
2021/09/18 14:37:12;;;;;;;9.68;1.80;;;30.50;35.90;;;;;;6244982;28;20339;-78
2021/09/18 14:40:13;;;;;;;6.75;1.83;;;30.30;36.10;;;;;;6253246;28;20033;-79
2021/09/18 14:43:14;;;;;;;2.58;1.52;;;30.20;36.40;;;;;;6273320;28;20386;-77
2021/09/18 14:46:16;;;;;;;3.70;1.75;;;30.20;36.60;;;;;;6272712;28;20095;-79
2021/09/18 14:49:17;;;;;;;2.15;1.95;;;30.10;36.70;;;;;;6255255;28;20025;-78
2021/09/18 14:52:18;;;;;;;5.30;2.10;;;30.00;36.80;;;;;;6224376;28;20128;-78
2021/09/18 14:55:19;;;;;;;4.88;2.05;;;30.00;37.00;;;;;;6226108;28;20029;-77
2021/09/18 14:58:20;;;;;;;3.92;1.83;;;29.90;37.00;;;;;;6239638;28;20099;-77
2021/09/18 15:01:21;;;;;;;3.33;1.70;;;29.90;37.00;;;;;;6246817;28;20048;-78
2021/09/18 15:04:22;;;;;;;2.72;1.73;;;29.90;37.10;;;;;;6245902;28;20021;-78
2021/09/18 15:07:24;;;;;;;7.68;1.63;;;29.90;37.00;;;;;;6226141;28;20091;-78
2021/09/18 15:10:24;;;;;;;1.55;1.45;;;29.90;37.00;;;;;;6225684;28;20072;-78
2021/09/18 15:13:25;;;;;;;4.45;1.92;;;30.00;37.00;;;;;;6232499;28;20063;-78
2021/09/18 15:16:26;;;;;;;2.70;1.77;;;30.00;37.00;;;;;;6272094;28;20025;-78
2021/09/18 15:19:27;;;;;;;5.63;1.90;;;29.90;37.00;;;;;;6254363;28;20037;-77
2021/09/18 15:22:28;;;;;;;2.55;1.60;;;29.90;37.10;;;;;;6271337;28;20033;-77
2021/09/18 15:25:31;;;;;;;3.38;1.85;;;29.80;37.20;;;;;;6271874;28;20048;-77
2021/09/18 15:28:32;;;;;;;4.03;1.70;;;29.80;37.40;;;;;;6231521;28;20393;-80
2021/09/18 15:31:33;;;;;;;2.60;1.73;;;29.70;37.60;;;;;;6263500;28;20033;-78
2021/09/18 15:34:34;;;;;;;7.13;1.80;;;29.60;37.60;;;;;;6247452;28;20353;-78
2021/09/18 15:37:35;;;;;;;3.20;2.20;;;29.60;37.70;;;;;;6270777;28;20034;-78
2021/09/18 15:40:35;;;;;;;3.33;2.10;;;29.50;37.80;;;;;;6270964;28;20017;-77
2021/09/18 15:43:38;;;;;;;2.10;1.50;;;29.40;37.80;;;;;;6271652;28;20053;-77
2021/09/18 15:46:39;;;;;;;5.43;1.98;;;29.30;38.00;;;;;;6270476;28;20032;-77
2021/09/18 15:49:40;;;;;;;8.60;1.70;;;29.20;38.20;;;;;;6251164;28;20053;-79
2021/09/18 15:52:40;;;;;;;3.85;1.80;;;29.10;38.20;;;;;;6225797;28;20046;-79